createdAt,value
2023-04-19T00:00:52.222Z,2.90
2023-04-19T00:03:20.355Z,2.50
2023-04-19T00:05:48.976Z,3.80
2023-04-19T00:08:16.976Z,2.00
2023-04-19T00:10:44.937Z,2.90
2023-04-19T00:13:13.114Z,2.20
2023-04-19T00:15:41.170Z,3.50
2023-04-19T00:18:09.131Z,3.10
2023-04-19T00:20:37.300Z,3.20
2023-04-19T00:23:05.648Z,2.50
2023-04-19T00:25:34.811Z,3.30
2023-04-19T00:28:02.870Z,2.70
2023-04-19T00:30:31.150Z,3.00
2023-04-19T00:32:59.422Z,2.30
2023-04-19T00:35:27.452Z,3.00
2023-04-19T00:37:55.508Z,2.50
2023-04-19T00:40:23.518Z,2.70
2023-04-19T00:42:51.563Z,2.80
2023-04-19T00:45:19.695Z,2.60
2023-04-19T00:47:47.690Z,2.20
2023-04-19T00:50:15.699Z,3.60
2023-04-19T00:52:43.626Z,3.30
2023-04-19T00:55:11.790Z,2.50
2023-04-19T00:57:39.816Z,2.20
2023-04-19T01:00:09.841Z,2.70
2023-04-19T01:02:38.066Z,2.30
2023-04-19T01:05:06.352Z,3.20
2023-04-19T01:07:35.241Z,2.60
2023-04-19T01:10:03.660Z,2.60
2023-04-19T01:12:31.628Z,2.40
2023-04-19T01:14:59.592Z,3.10
2023-04-19T01:17:27.721Z,3.00
2023-04-19T01:20:02.829Z,3.60
2023-04-19T01:22:32.112Z,3.70
2023-04-19T01:25:00.601Z,2.50
2023-04-19T01:27:28.540Z,2.30
2023-04-19T01:29:56.729Z,2.60
2023-04-19T01:32:27.822Z,2.30
2023-04-19T01:34:57.285Z,2.50
2023-04-19T01:37:25.356Z,2.20
2023-04-19T01:39:53.335Z,2.80
2023-04-19T01:42:21.305Z,3.80
2023-04-19T01:44:49.261Z,3.00
2023-04-19T01:47:17.300Z,2.80
2023-04-19T01:49:45.539Z,3.00
2023-04-19T01:52:13.481Z,2.30
2023-04-19T01:54:41.955Z,3.10
2023-04-19T01:57:09.980Z,2.70
2023-04-19T01:59:37.951Z,3.40
2023-04-19T02:02:09.474Z,2.30
2023-04-19T02:04:37.577Z,2.40
2023-04-19T02:07:07.989Z,2.80
2023-04-19T02:09:37.082Z,2.10
2023-04-19T02:12:05.619Z,2.90
2023-04-19T02:14:33.711Z,2.30
2023-04-19T02:17:01.836Z,2.50
2023-04-19T02:19:29.983Z,2.20
2023-04-19T02:21:58.232Z,3.30
2023-04-19T02:24:26.337Z,2.40
2023-04-19T02:26:54.613Z,2.80
2023-04-19T02:29:22.650Z,3.30
2023-04-19T02:31:50.686Z,2.90
2023-04-19T02:34:18.691Z,3.20
2023-04-19T02:36:46.674Z,2.90
2023-04-19T02:39:14.657Z,3.20
2023-04-19T02:41:42.675Z,2.20
2023-04-19T02:44:10.708Z,2.10
2023-04-19T02:46:38.686Z,2.60
2023-04-19T02:49:06.641Z,3.00
2023-04-19T02:51:34.624Z,3.00
2023-04-19T02:54:02.729Z,2.80
2023-04-19T02:56:30.878Z,2.00
2023-04-19T02:59:02.440Z,2.70
2023-04-19T03:01:31.360Z,2.10
2023-04-19T03:03:59.653Z,2.40
2023-04-19T03:06:27.829Z,2.40
2023-04-19T03:08:55.943Z,2.40
2023-04-19T03:11:23.920Z,2.70
2023-04-19T03:13:51.965Z,2.10
2023-04-19T03:16:20.178Z,2.20
2023-04-19T03:18:49.631Z,2.30
2023-04-19T03:21:18.807Z,3.00
2023-04-19T03:23:54.490Z,2.70
2023-04-19T03:26:22.987Z,3.10
2023-04-19T03:28:53.566Z,2.30
2023-04-19T03:31:21.806Z,2.50
2023-04-19T03:33:51.569Z,2.10
2023-04-19T03:36:21.397Z,2.30
2023-04-19T03:38:50.294Z,2.80
2023-04-19T03:41:26.762Z,2.50
2023-04-19T03:44:17.917Z,2.50
2023-04-19T03:46:48.513Z,3.90
2023-04-19T03:49:18.821Z,2.90
2023-04-19T03:51:50.549Z,2.40
2023-04-19T03:54:18.734Z,2.50
2023-04-19T03:56:46.812Z,2.30
2023-04-19T03:59:14.826Z,2.40
2023-04-19T04:01:43.447Z,3.10
2023-04-19T04:04:12.749Z,2.90
2023-04-19T04:06:40.969Z,2.90
2023-04-19T04:09:09.063Z,3.00
2023-04-19T04:11:37.066Z,2.80
2023-04-19T04:14:05.234Z,3.80
2023-04-19T04:16:34.638Z,2.50
2023-04-19T04:19:02.927Z,3.50
2023-04-19T04:21:32.598Z,2.40
2023-04-19T04:24:02.485Z,2.30
2023-04-19T04:26:49.966Z,3.40
2023-04-19T04:29:21.335Z,3.00
2023-04-19T04:31:50.335Z,2.10
2023-04-19T04:34:20.565Z,5.40
2023-04-19T04:36:53.299Z,23.20
2023-04-19T04:39:22.125Z,19.00
2023-04-19T04:41:51.970Z,14.70
2023-04-19T04:44:20.765Z,22.30
2023-04-19T04:46:49.006Z,23.30
2023-04-19T04:49:21.388Z,19.00
2023-04-19T04:51:49.359Z,13.80
2023-04-19T04:54:19.871Z,14.80
2023-04-19T04:56:48.538Z,18.00
2023-04-19T04:59:16.997Z,19.00
2023-04-19T05:01:46.835Z,16.90
2023-04-19T05:04:15.809Z,21.60
2023-04-19T05:06:44.662Z,18.00
2023-04-19T05:09:12.745Z,14.70
2023-04-19T05:11:41.016Z,15.70
2023-04-19T05:14:09.062Z,15.10
2023-04-19T05:16:37.182Z,15.10
2023-04-19T05:19:05.365Z,16.10
2023-04-19T05:21:36.031Z,15.40
2023-04-19T05:24:05.675Z,13.40
2023-04-19T05:26:34.366Z,13.20
2023-04-19T05:29:02.897Z,13.00
2023-04-19T05:31:41.639Z,15.40
2023-04-19T05:34:13.957Z,15.30
2023-04-19T05:36:42.035Z,15.00
2023-04-19T05:39:10.087Z,13.40
2023-04-19T05:41:38.060Z,9.70
2023-04-19T05:44:07.193Z,12.50
2023-04-19T05:46:35.183Z,9.70
2023-04-19T05:49:03.533Z,12.00
2023-04-19T05:51:31.916Z,11.60
2023-04-19T05:54:18.944Z,9.80
2023-04-19T05:56:48.180Z,9.90
2023-04-19T05:59:16.410Z,10.90
2023-04-19T06:01:44.794Z,13.80
2023-04-19T06:04:13.434Z,10.50
2023-04-19T06:06:41.767Z,12.40
2023-04-19T06:09:09.748Z,9.40
2023-04-19T06:11:46.967Z,10.10
2023-04-19T06:14:18.890Z,9.20
2023-04-19T06:16:47.465Z,11.20
2023-04-19T06:19:16.000Z,12.30
2023-04-19T06:21:44.031Z,8.70
2023-04-19T06:24:11.915Z,8.10
2023-04-19T06:26:40.332Z,7.20
2023-04-19T06:29:08.288Z,7.90
2023-04-19T06:31:36.476Z,8.50
2023-04-19T06:34:04.470Z,9.30
2023-04-19T06:36:32.559Z,8.80
2023-04-19T06:39:00.637Z,8.70
2023-04-19T06:41:28.658Z,7.60
2023-04-19T06:43:56.766Z,9.40
2023-04-19T06:46:24.939Z,6.40
2023-04-19T06:48:53.022Z,6.80
2023-04-19T06:51:21.035Z,8.50
2023-04-19T06:53:50.508Z,9.00
2023-04-19T06:56:18.411Z,7.50
2023-04-19T06:58:46.367Z,8.40
2023-04-19T07:01:14.430Z,8.40
2023-04-19T07:03:42.641Z,8.30
2023-04-19T07:06:10.966Z,6.40
2023-04-19T07:08:49.162Z,6.80
2023-04-19T07:11:20.395Z,6.90
2023-04-19T07:13:49.184Z,6.30
2023-04-19T07:16:17.244Z,7.80
2023-04-19T07:18:45.125Z,6.00
2023-04-19T07:21:13.262Z,6.30
2023-04-19T07:23:41.403Z,4.20
2023-04-19T07:26:09.445Z,3.90
2023-04-19T07:28:39.564Z,4.60
2023-04-19T07:31:07.859Z,4.60
2023-04-19T07:33:35.969Z,5.30
2023-04-19T07:36:04.211Z,5.70
2023-04-19T07:38:32.215Z,6.80
2023-04-19T07:41:00.170Z,4.40
2023-04-19T07:43:30.044Z,3.70
2023-04-19T07:45:58.180Z,5.70
2023-04-19T07:48:26.351Z,5.80
2023-04-19T07:50:54.494Z,6.10
2023-04-19T07:53:22.454Z,2.90
2023-04-19T07:55:50.562Z,4.10
2023-04-19T07:58:18.495Z,4.40
2023-04-19T08:00:46.604Z,3.80
2023-04-19T08:03:15.181Z,4.80
2023-04-19T08:05:43.393Z,6.80
2023-04-19T08:08:11.390Z,3.20
2023-04-19T08:10:39.303Z,3.50
2023-04-19T08:13:07.217Z,3.50
2023-04-19T08:18:06.553Z,4.00
2023-04-19T08:20:34.644Z,3.50
2023-04-19T08:23:14.031Z,4.10
2023-04-19T08:25:46.375Z,2.20
2023-04-19T08:28:14.328Z,4.50
2023-04-19T08:30:42.394Z,3.50
2023-04-19T08:33:11.000Z,2.80
2023-04-19T08:35:41.090Z,3.40
2023-04-19T08:38:09.318Z,3.50
2023-04-19T08:40:41.734Z,2.70
2023-04-19T08:43:09.680Z,3.20
2023-04-19T08:45:37.746Z,6.50
2023-04-19T08:48:06.505Z,3.80
2023-04-19T08:50:42.742Z,2.70
2023-04-19T08:53:25.793Z,4.70
2023-04-19T08:56:12.945Z,2.90
2023-04-19T08:59:00.987Z,3.10
2023-04-19T09:01:36.270Z,3.60
2023-04-19T09:04:26.517Z,2.80
2023-04-19T09:06:56.137Z,4.00
2023-04-19T09:11:58.149Z,3.80
2023-04-19T09:14:28.559Z,3.20
2023-04-19T09:17:16.468Z,4.20
2023-04-19T09:19:50.701Z,3.20
2023-04-19T09:22:19.001Z,3.40
2023-04-19T09:25:23.982Z,3.00
2023-04-19T09:27:36.581Z,2.20
2023-04-19T09:30:05.299Z,3.90
2023-04-19T09:32:49.436Z,3.10
2023-04-19T09:38:06.244Z,2.70
2023-04-19T09:40:34.930Z,2.80
2023-04-19T09:43:23.043Z,2.20
2023-04-19T09:45:52.611Z,4.30
2023-04-19T09:48:20.662Z,2.90
2023-04-19T09:51:01.830Z,4.00
2023-04-19T09:53:34.417Z,2.80
2023-04-19T09:56:04.356Z,3.10
2023-04-19T10:01:14.299Z,3.80
2023-04-19T10:03:46.057Z,3.00
2023-04-19T10:08:55.977Z,2.70
2023-04-19T10:11:25.306Z,2.90
2023-04-19T10:19:02.200Z,5.40
2023-04-19T10:21:31.127Z,2.40
2023-04-19T10:23:59.286Z,3.80
2023-04-19T10:26:27.714Z,2.50
2023-04-19T10:28:58.703Z,2.50
2023-04-19T10:31:26.959Z,2.70
2023-04-19T10:42:04.272Z,3.40
2023-04-19T10:44:32.148Z,2.00
2023-04-19T10:57:12.042Z,1.90
2023-04-19T10:59:44.422Z,2.10
2023-04-19T11:20:27.842Z,2.50
2023-04-19T11:23:00.969Z,2.20
2023-04-19T11:51:27.519Z,2.30
2023-04-19T11:53:55.529Z,2.50
2023-04-19T12:17:11.756Z,3.10
2023-04-19T12:24:59.169Z,2.20
2023-04-19T12:30:00.021Z,2.20
2023-04-19T12:32:28.149Z,2.00
2023-04-19T12:34:56.199Z,2.20
2023-04-19T12:37:24.703Z,2.20
2023-04-19T12:39:53.737Z,2.70
2023-04-19T12:42:23.315Z,2.50
2023-04-19T12:44:51.312Z,3.40
2023-04-19T12:47:22.105Z,3.10
2023-04-19T12:49:50.292Z,2.00
2023-04-19T12:52:19.160Z,3.10
2023-04-19T12:54:47.187Z,3.90
2023-04-19T12:57:15.256Z,1.70
2023-04-19T12:59:43.294Z,2.00
2023-04-19T13:02:11.357Z,1.60
2023-04-19T13:04:39.524Z,2.10
2023-04-19T13:07:07.498Z,2.20
2023-04-19T13:09:35.549Z,2.50
2023-04-19T13:14:40.157Z,2.50
2023-04-19T13:17:08.160Z,2.40
2023-04-19T13:19:36.179Z,2.60
2023-04-19T13:22:04.284Z,1.90
2023-04-19T13:24:32.257Z,2.20
2023-04-19T13:32:07.847Z,3.30
2023-04-19T13:34:35.792Z,2.00
2023-04-19T13:37:03.827Z,1.70
2023-04-19T13:39:31.760Z,1.70
2023-04-19T13:41:59.883Z,3.20
2023-04-19T13:44:28.588Z,2.40
2023-04-19T13:46:56.737Z,1.90
2023-04-19T13:49:24.856Z,2.80
2023-04-19T13:51:52.900Z,1.70
2023-04-19T13:54:21.414Z,3.50
2023-04-19T13:56:51.932Z,2.20
2023-04-19T13:59:21.259Z,2.10
2023-04-19T14:01:49.265Z,2.90
2023-04-19T14:04:17.830Z,3.40
2023-04-19T14:06:46.145Z,3.90
2023-04-19T14:09:14.319Z,3.80
2023-04-19T14:11:42.391Z,3.00
2023-04-19T14:14:10.628Z,3.90
2023-04-19T14:16:38.625Z,3.90
2023-04-19T14:19:06.741Z,3.20
2023-04-19T14:21:34.694Z,2.90
2023-04-19T14:24:02.694Z,2.90
2023-04-19T14:26:30.804Z,2.80
2023-04-19T14:28:58.843Z,4.00
2023-04-19T14:31:28.387Z,2.40
2023-04-19T14:33:56.978Z,2.40
2023-04-19T14:36:24.983Z,2.90
2023-04-19T14:38:53.472Z,2.50
2023-04-19T14:41:21.630Z,2.50
2023-04-19T14:43:49.611Z,2.50
2023-04-19T14:46:17.797Z,2.60
2023-04-19T14:48:46.247Z,3.20
2023-04-19T14:51:14.182Z,4.00
2023-04-19T14:53:42.198Z,4.60
2023-04-19T14:56:10.227Z,4.50
2023-04-19T14:58:38.399Z,3.90
2023-04-19T15:01:13.197Z,3.90
2023-04-19T15:03:41.704Z,2.70
2023-04-19T15:06:09.972Z,4.60
2023-04-19T15:08:38.027Z,4.20
2023-04-19T15:11:06.078Z,4.70
2023-04-19T15:13:35.531Z,2.90
2023-04-19T15:16:04.022Z,3.10
2023-04-19T15:18:32.166Z,3.00
2023-04-19T15:21:00.146Z,2.90
2023-04-19T15:23:28.168Z,2.70
2023-04-19T15:25:56.364Z,3.10
2023-04-19T15:28:24.549Z,3.00
2023-04-19T15:31:00.307Z,2.50
2023-04-19T15:33:28.553Z,5.40
2023-04-19T15:35:56.870Z,2.60
2023-04-19T15:38:29.228Z,3.80
2023-04-19T15:40:58.154Z,2.90
2023-04-19T15:43:26.166Z,3.30
2023-04-19T15:45:54.251Z,2.10
2023-04-19T15:48:22.346Z,3.10
2023-04-19T15:50:50.895Z,6.20
2023-04-19T15:53:18.999Z,3.90
2023-04-19T15:55:48.070Z,2.90
2023-04-19T15:58:16.218Z,3.90
2023-04-19T16:00:44.736Z,3.70
2023-04-19T16:03:13.014Z,3.40
2023-04-19T16:05:41.073Z,3.80
2023-04-19T16:08:09.507Z,4.30
2023-04-19T16:10:37.717Z,2.80
2023-04-19T16:13:06.051Z,2.40
2023-04-19T16:15:33.907Z,2.80
2023-04-19T16:18:01.924Z,3.20
2023-04-19T16:20:30.180Z,2.80
2023-04-19T16:22:58.568Z,3.40
2023-04-19T16:25:26.958Z,2.50
2023-04-19T16:27:54.836Z,3.10
2023-04-19T16:30:23.683Z,3.30
2023-04-19T16:32:51.746Z,2.90
2023-04-19T16:35:19.698Z,4.80
2023-04-19T16:37:47.609Z,2.30
2023-04-19T16:40:15.710Z,3.10
2023-04-19T16:42:43.858Z,2.70
2023-04-19T16:45:12.062Z,2.50
2023-04-19T16:47:40.157Z,1.90
2023-04-19T16:50:09.188Z,3.00
2023-04-19T16:52:37.241Z,5.10
2023-04-19T16:55:05.628Z,3.90
2023-04-19T16:57:33.686Z,3.00
2023-04-19T17:00:01.793Z,2.70
2023-04-19T17:02:29.997Z,2.20
2023-04-19T17:04:58.666Z,2.50
2023-04-19T17:07:26.683Z,2.60
2023-04-19T17:09:55.302Z,2.20
2023-04-19T17:12:23.452Z,2.30
2023-04-19T17:14:51.486Z,4.10
2023-04-19T17:17:20.199Z,2.50
2023-04-19T17:19:48.314Z,2.40
2023-04-19T17:22:16.361Z,2.90
2023-04-19T17:24:44.437Z,2.70
2023-04-19T17:27:12.343Z,2.10
2023-04-19T17:29:40.341Z,2.20
2023-04-19T17:32:09.091Z,2.50
2023-04-19T17:34:37.441Z,2.00
2023-04-19T17:37:05.665Z,1.70
2023-04-19T17:39:33.596Z,2.10
2023-04-19T17:42:01.885Z,4.10
2023-04-19T17:44:29.944Z,2.90
2023-04-19T17:46:58.202Z,2.90
2023-04-19T17:49:27.205Z,1.90
2023-04-19T17:51:56.201Z,2.70
2023-04-19T17:54:24.566Z,2.80
2023-04-19T17:56:52.864Z,2.90
2023-04-19T17:59:20.936Z,1.90
2023-04-19T18:01:49.083Z,2.20
2023-04-19T18:04:20.039Z,3.60
2023-04-19T18:06:48.226Z,3.50
2023-04-19T18:09:19.425Z,5.20
2023-04-19T18:11:47.866Z,3.70
2023-04-19T18:14:15.813Z,3.40
2023-04-19T18:16:43.805Z,3.50
2023-04-19T18:19:11.866Z,4.70
2023-04-19T18:21:40.334Z,6.10
2023-04-19T18:24:08.690Z,4.30
2023-04-19T18:26:38.914Z,3.20
2023-04-19T18:29:07.202Z,3.80
2023-04-19T18:31:35.247Z,2.80
2023-04-19T18:34:03.212Z,3.60
2023-04-19T18:36:32.229Z,4.60
2023-04-19T18:39:00.220Z,3.50
2023-04-19T18:41:28.226Z,4.40
2023-04-19T18:46:27.202Z,2.60
2023-04-19T18:48:55.359Z,7.50
2023-04-19T18:51:23.375Z,3.40
2023-04-19T18:53:51.863Z,2.70
2023-04-19T18:56:20.366Z,3.10
2023-04-19T18:58:49.099Z,3.00
2023-04-19T19:01:17.161Z,3.00
2023-04-19T19:06:16.478Z,2.80
2023-04-19T19:08:44.971Z,3.80
2023-04-19T19:11:37.431Z,3.40
2023-04-19T19:14:02.858Z,5.20
2023-04-19T19:16:31.696Z,5.30
2023-04-19T19:18:59.874Z,7.10
2023-04-19T19:21:29.434Z,9.50
2023-04-19T19:23:57.876Z,11.00
2023-04-19T19:26:28.722Z,10.60
2023-04-19T19:28:57.684Z,10.30
2023-04-19T19:31:25.844Z,14.50
2023-04-19T19:34:09.440Z,13.30
2023-04-19T19:36:43.408Z,8.90
2023-04-19T19:39:11.524Z,10.30
2023-04-19T19:44:14.022Z,7.70
2023-04-19T19:46:42.025Z,8.00
2023-04-19T19:49:13.905Z,9.30
2023-04-19T19:51:57.554Z,6.40
2023-04-19T19:54:26.114Z,7.30
2023-04-19T19:57:35.621Z,7.20
2023-04-19T19:59:50.380Z,7.80
2023-04-19T20:02:24.303Z,6.70
2023-04-19T20:04:52.689Z,8.00
2023-04-19T20:09:52.422Z,8.20
2023-04-19T20:12:20.406Z,7.80
2023-04-19T20:14:48.482Z,6.80
2023-04-19T20:17:16.584Z,5.60
2023-04-19T20:19:45.038Z,5.30
2023-04-19T20:22:13.138Z,6.00
2023-04-19T20:24:42.544Z,8.50
2023-04-19T20:27:10.553Z,4.40
2023-04-19T20:29:38.567Z,5.40
2023-04-19T20:32:08.674Z,4.40
2023-04-19T20:34:37.813Z,6.60
2023-04-19T20:37:06.895Z,4.60
2023-04-19T20:39:34.886Z,4.40
2023-04-19T20:42:03.546Z,4.70
2023-04-19T20:44:31.526Z,6.20
2023-04-19T20:46:59.496Z,6.00
2023-04-19T20:49:27.545Z,4.90
2023-04-19T20:51:55.616Z,6.60
2023-04-19T20:54:23.650Z,4.70
2023-04-19T20:56:52.804Z,5.40
2023-04-19T20:59:20.867Z,5.30
2023-04-19T21:01:48.914Z,4.80
2023-04-19T21:04:17.027Z,5.20
2023-04-19T21:06:46.269Z,4.90
2023-04-19T21:09:14.280Z,4.10
2023-04-19T21:11:42.205Z,4.80
2023-04-19T21:14:10.259Z,4.00
2023-04-19T21:16:38.320Z,5.90
2023-04-19T21:19:06.216Z,5.40
2023-04-19T21:21:34.161Z,5.50
2023-04-19T21:24:02.073Z,4.00
2023-04-19T21:26:30.082Z,5.60
2023-04-19T21:28:58.074Z,5.10
2023-04-19T21:31:26.277Z,4.80
2023-04-19T21:33:54.233Z,4.40
2023-04-19T21:36:22.204Z,5.80
2023-04-19T21:38:51.028Z,4.70
2023-04-19T21:41:18.889Z,3.90
2023-04-19T21:43:46.854Z,4.00
2023-04-19T21:46:14.847Z,3.90
2023-04-19T21:48:42.855Z,4.50
2023-04-19T21:51:12.725Z,4.50
2023-04-19T21:53:40.668Z,5.40
2023-04-19T21:56:08.684Z,6.00
2023-04-19T21:58:36.924Z,4.30
2023-04-19T22:01:04.882Z,4.20
2023-04-19T22:03:33.058Z,4.40
2023-04-19T22:06:02.142Z,4.40
2023-04-19T22:08:32.580Z,5.10
2023-04-19T22:11:01.640Z,5.20
2023-04-19T22:13:30.197Z,3.50
2023-04-19T22:16:00.937Z,3.30
2023-04-19T22:18:28.825Z,4.60
2023-04-19T22:20:56.881Z,4.10
2023-04-19T22:23:24.966Z,3.50
2023-04-19T22:25:52.948Z,5.60
2023-04-19T22:28:20.889Z,4.40
2023-04-19T22:30:49.902Z,4.50
2023-04-19T22:33:18.794Z,4.30
2023-04-19T22:35:46.825Z,5.70
2023-04-19T22:38:14.846Z,3.00
2023-04-19T22:40:42.904Z,4.10
2023-04-19T22:43:10.808Z,3.80
2023-04-19T22:45:39.007Z,3.40
2023-04-19T22:48:07.111Z,4.20
2023-04-19T22:50:35.061Z,4.70
2023-04-19T22:53:03.224Z,4.20
2023-04-19T22:55:31.133Z,4.30
2023-04-19T22:57:59.180Z,4.80
2023-04-19T23:00:27.077Z,3.80
2023-04-19T23:02:55.420Z,3.00
2023-04-19T23:05:23.923Z,3.20
2023-04-19T23:07:51.878Z,4.10
2023-04-19T23:10:19.927Z,3.60
2023-04-19T23:12:49.033Z,4.90
2023-04-19T23:15:17.032Z,2.80
2023-04-19T23:17:45.120Z,3.40
2023-04-19T23:20:13.298Z,4.00
2023-04-19T23:22:41.286Z,3.30
2023-04-19T23:25:09.657Z,3.40
2023-04-19T23:27:37.552Z,3.50
2023-04-19T23:30:07.412Z,3.00
2023-04-19T23:32:35.459Z,3.10
2023-04-19T23:35:03.821Z,3.90
2023-04-19T23:37:31.899Z,3.70
2023-04-19T23:40:00.006Z,3.40
2023-04-19T23:42:28.047Z,2.90
2023-04-19T23:44:56.541Z,3.10
2023-04-19T23:47:24.792Z,2.90
2023-04-19T23:49:52.924Z,4.10
2023-04-19T23:52:22.852Z,3.50
2023-04-19T23:54:51.177Z,3.00
2023-04-19T23:57:19.637Z,2.90
2023-04-19T23:59:47.491Z,3.10
